Time;durP1;ratioP1;P1;durP2;ratioP2;P2;SDS_P1;SDS_P2;PMS_P1;PMS_P2;Temp;Humidity;BMP_temperature;BMP_pressure;BME280_temperature;BME280_humidity;BME280_pressure;Samples;Min_cycle;Max_cycle;Signal;HPM_P1;HPM_P2
2023/06/22 00:04:36;;;;;;;9.30;8.40;;;23.00;99.90;;;;;;10439317;28;20301;-86
2023/06/22 00:09:39;;;;;;;8.87;8.07;;;23.00;99.90;;;;;;10438502;28;20571;-86
2023/06/22 00:14:41;;;;;;;8.63;7.87;;;23.00;99.90;;;;;;10456712;28;20280;-86
2023/06/22 00:19:44;;;;;;;9.00;8.30;;;22.90;99.90;;;;;;10438522;28;20652;-86
2023/06/22 00:24:47;;;;;;;9.10;8.30;;;22.90;99.90;;;;;;10456894;28;20585;-86
2023/06/22 00:29:49;;;;;;;9.30;8.50;;;22.90;99.90;;;;;;10459342;28;20217;-86
2023/06/22 00:34:51;;;;;;;8.70;7.90;;;22.90;99.90;;;;;;10440131;28;20642;-86
2023/06/22 00:39:55;;;;;;;9.70;8.90;;;22.80;99.90;;;;;;10439177;28;20225;-87
2023/06/22 00:44:58;;;;;;;9.17;8.37;;;22.80;99.90;;;;;;10447228;28;20252;-86
2023/06/22 00:50:01;;;;;;;9.30;8.17;;;22.80;99.90;;;;;;10437682;28;20688;-87
2023/06/22 00:55:06;;;;;;;9.77;8.97;;;22.80;99.90;;;;;;10455244;28;20213;-86
2023/06/22 01:00:11;;;;;;;10.00;9.20;;;22.70;99.90;;;;;;10413853;28;20304;-86
2023/06/22 01:05:14;;;;;;;8.97;7.83;;;22.70;99.90;;;;;;10434286;28;20208;-86
2023/06/22 01:10:27;;;;;;;8.70;7.90;;;22.70;99.90;;;;;;10436583;28;20281;-85
2023/06/22 01:15:34;;;;;;;9.97;9.10;;;22.70;99.90;;;;;;10454566;28;20222;-86
2023/06/22 01:20:37;;;;;;;10.00;9.17;;;22.70;99.90;;;;;;10436675;28;20569;-84
2023/06/22 01:25:49;;;;;;;10.23;8.40;;;22.70;99.90;;;;;;10436603;28;20642;-86
2023/06/22 01:37:01;;;;;;;10.40;8.03;;;22.60;99.90;;;;;;10429836;28;20232;-86
2023/06/22 01:42:13;;;;;;;10.10;9.20;;;22.50;99.90;;;;;;10433092;28;20204;-85
2023/06/22 01:47:36;;;;;;;9.27;8.50;;;22.50;99.90;;;;;;10419759;28;20322;-86
2023/06/22 01:52:45;;;;;;;8.87;8.20;;;22.50;99.90;;;;;;10450605;28;20225;-86
2023/06/22 01:57:53;;;;;;;9.33;8.43;;;22.40;99.90;;;;;;10459204;28;20285;-85
2023/06/22 02:03:29;;;;;;;8.47;7.77;;;22.40;99.90;;;;;;10447831;28;20210;-85
2023/06/22 02:08:56;;;;;;;9.40;8.60;;;22.40;99.90;;;;;;10470561;28;20244;-86
2023/06/22 02:14:21;;;;;;;9.17;8.47;;;22.40;99.90;;;;;;10430775;28;20293;-86
2023/06/22 02:19:49;;;;;;;10.67;8.47;;;22.30;99.90;;;;;;10430496;28;20253;-86
2023/06/22 02:31:02;;;;;;;8.10;7.50;;;22.20;99.90;;;;;;10414836;28;20540;-85
2023/06/22 02:36:12;;;;;;;10.03;9.10;;;22.20;99.90;;;;;;10416148;28;20218;-86
2023/06/22 02:41:17;;;;;;;11.53;9.77;;;22.20;99.90;;;;;;10432723;28;20198;-84
2023/06/22 02:46:20;;;;;;;8.40;7.80;;;22.10;99.90;;;;;;10440301;28;20305;-86
2023/06/22 02:51:24;;;;;;;10.40;9.60;;;22.10;99.90;;;;;;10435697;28;20221;-86
2023/06/22 02:56:30;;;;;;;10.50;9.50;;;22.10;99.90;;;;;;10432093;28;20656;-86
2023/06/22 03:01:39;;;;;;;12.07;11.07;;;22.10;99.90;;;;;;10432661;28;20221;-86
2023/06/22 03:06:50;;;;;;;11.20;10.20;;;22.10;99.90;;;;;;10431795;28;20210;-86
2023/06/22 03:11:58;;;;;;;11.67;10.57;;;22.00;99.90;;;;;;10431632;28;20205;-83
2023/06/22 03:17:08;;;;;;;10.50;9.50;;;22.00;99.90;;;;;;10433355;28;20236;-84
2023/06/22 03:22:19;;;;;;;11.17;10.20;;;22.00;99.90;;;;;;10449766;28;20201;-85
2023/06/22 03:27:21;;;;;;;10.93;10.20;;;22.00;99.90;;;;;;10432513;28;20214;-84
2023/06/22 03:32:24;;;;;;;11.13;10.07;;;21.90;99.90;;;;;;10428305;28;20194;-86
2023/06/22 03:37:28;;;;;;;11.10;10.10;;;21.90;99.90;;;;;;10449973;28;20222;-86
2023/06/22 03:42:30;;;;;;;12.23;11.10;;;21.90;99.90;;;;;;10432056;28;20205;-86
2023/06/22 03:47:32;;;;;;;11.90;10.80;;;21.90;99.90;;;;;;10431732;28;20259;-85
2023/06/22 03:52:36;;;;;;;10.60;9.80;;;21.80;99.90;;;;;;10429783;28;20198;-86
2023/06/22 03:57:39;;;;;;;10.60;9.83;;;21.80;99.90;;;;;;10432049;28;20220;-86
2023/06/22 04:02:41;;;;;;;10.13;9.33;;;21.80;99.90;;;;;;10431640;28;20185;-85
2023/06/22 04:07:47;;;;;;;11.10;10.20;;;21.80;99.90;;;;;;10446899;28;20336;-86
2023/06/22 04:12:49;;;;;;;11.17;10.30;;;21.90;99.90;;;;;;10427345;28;20684;-86
2023/06/22 04:17:52;;;;;;;12.23;11.17;;;21.90;99.90;;;;;;10452164;28;20229;-85
2023/06/22 04:22:55;;;;;;;12.30;11.00;;;21.90;99.90;;;;;;10448956;28;20205;-85
2023/06/22 04:27:57;;;;;;;11.07;10.27;;;21.90;99.90;;;;;;10429979;28;20214;-85
2023/06/22 04:33:00;;;;;;;12.90;10.90;;;22.00;99.90;;;;;;10448810;28;20202;-86
2023/06/22 04:38:03;;;;;;;11.70;10.50;;;22.00;99.90;;;;;;10448447;28;20228;-86
2023/06/22 04:43:06;;;;;;;9.97;9.17;;;22.00;99.90;;;;;;10432623;28;20269;-86
2023/06/22 04:48:09;;;;;;;10.90;10.00;;;22.10;99.90;;;;;;10467811;28;20759;-86
2023/06/22 04:53:13;;;;;;;11.87;10.87;;;22.10;99.90;;;;;;10461804;28;20218;-86
2023/06/22 04:58:15;;;;;;;11.10;10.23;;;22.20;99.90;;;;;;10486769;28;20233;-86
2023/06/22 05:03:18;;;;;;;13.63;12.43;;;22.30;99.90;;;;;;10420783;28;20222;-86
2023/06/22 05:08:26;;;;;;;12.37;11.07;;;22.40;99.90;;;;;;10431695;28;20709;-86
2023/06/22 05:13:28;;;;;;;12.50;11.60;;;22.40;99.90;;;;;;10419148;28;20276;-86
2023/06/22 05:18:34;;;;;;;13.60;11.97;;;22.50;99.90;;;;;;10434280;28;20222;-84
2023/06/22 05:23:37;;;;;;;12.13;11.13;;;22.60;99.90;;;;;;10448786;28;20198;-85
2023/06/22 05:28:45;;;;;;;12.40;11.00;;;22.70;99.90;;;;;;10460543;28;20213;-86
2023/06/22 05:33:49;;;;;;;12.07;11.07;;;22.80;99.90;;;;;;10436477;28;20407;-86
2023/06/22 05:38:54;;;;;;;13.70;12.20;;;23.00;99.90;;;;;;10452510;28;20224;-87
2023/06/22 05:43:56;;;;;;;12.23;11.10;;;23.20;99.90;;;;;;10452952;28;20194;-86
2023/06/22 05:48:58;;;;;;;9.80;9.07;;;23.40;99.90;;;;;;10448249;28;20210;-85
2023/06/22 05:54:02;;;;;;;9.50;8.60;;;23.50;99.90;;;;;;10448823;28;20197;-85
2023/06/22 05:59:04;;;;;;;10.13;9.33;;;23.60;99.90;;;;;;10446418;28;20674;-86
2023/06/22 06:04:07;;;;;;;10.17;9.20;;;23.70;99.90;;;;;;10435348;28;20268;-86
2023/06/22 06:09:12;;;;;;;9.73;8.80;;;23.80;99.90;;;;;;10452334;28;20236;-85
2023/06/22 06:14:14;;;;;;;9.60;8.70;;;23.70;99.90;;;;;;10452768;28;20182;-85
2023/06/22 06:19:16;;;;;;;10.23;9.40;;;23.70;99.90;;;;;;10451797;28;20225;-86
2023/06/22 06:24:20;;;;;;;10.73;7.73;;;23.80;99.90;;;;;;10433787;28;20644;-85
2023/06/22 06:29:23;;;;;;;8.50;7.70;;;23.80;99.90;;;;;;10433355;28;20658;-86
2023/06/22 06:34:25;;;;;;;7.57;6.87;;;23.80;99.90;;;;;;10451697;28;20251;-85
2023/06/22 06:39:29;;;;;;;9.17;8.37;;;23.90;99.90;;;;;;10475806;28;20228;-85
2023/06/22 06:44:31;;;;;;;8.50;7.80;;;24.10;99.90;;;;;;10451049;28;20364;-85
2023/06/22 06:49:36;;;;;;;8.27;7.67;;;24.30;99.90;;;;;;10450730;28;20218;-85
2023/06/22 06:54:41;;;;;;;9.73;8.73;;;24.60;99.90;;;;;;10439196;28;20200;-87
2023/06/22 06:59:48;;;;;;;6.73;6.03;;;24.80;99.90;;;;;;10458838;28;20226;-86
2023/06/22 07:04:50;;;;;;;8.63;7.70;;;25.10;99.90;;;;;;10448900;28;20205;-87
2023/06/22 07:09:54;;;;;;;7.47;6.77;;;25.40;99.90;;;;;;10448647;28;20220;-84
2023/06/22 07:15:03;;;;;;;8.73;7.17;;;25.70;99.90;;;;;;10415156;28;20715;-86
2023/06/22 07:20:09;;;;;;;8.17;6.60;;;26.00;99.90;;;;;;10449280;28;20236;-86
2023/06/22 07:25:15;;;;;;;7.03;6.43;;;26.40;99.90;;;;;;10450954;28;20246;-88
2023/06/22 07:30:17;;;;;;;6.80;6.23;;;26.90;99.90;;;;;;10457840;28;20352;-86
2023/06/22 07:35:20;;;;;;;6.47;5.83;;;27.30;99.90;;;;;;10430156;28;20189;-87
2023/06/22 07:40:23;;;;;;;7.37;6.77;;;27.70;99.90;;;;;;10456440;28;20208;-89
2023/06/22 07:45:25;;;;;;;6.40;5.20;;;28.20;99.90;;;;;;10474824;28;20247;-87
2023/06/22 07:50:27;;;;;;;6.33;5.83;;;28.50;99.90;;;;;;10428336;28;20267;-88
2023/06/22 07:55:31;;;;;;;6.00;5.50;;;28.90;99.90;;;;;;10445723;28;20214;-87
2023/06/22 08:00:37;;;;;;;6.83;6.20;;;29.40;99.30;;;;;;10430351;28;20596;-87
2023/06/22 08:05:41;;;;;;;9.50;5.73;;;29.80;99.60;;;;;;10445935;28;20218;-88
2023/06/22 08:10:45;;;;;;;7.20;6.60;;;30.10;98.70;;;;;;10409333;28;20186;-88
2023/06/22 08:15:47;;;;;;;6.47;5.87;;;30.60;98.40;;;;;;10450758;28;20359;-87
2023/06/22 08:20:49;;;;;;;6.80;6.20;;;31.00;95.80;;;;;;10454032;28;20290;-88
2023/06/22 08:25:52;;;;;;;6.27;5.40;;;31.20;95.90;;;;;;10437962;28;20271;-87
2023/06/22 08:30:55;;;;;;;10.43;6.50;;;31.10;95.50;;;;;;10439034;28;20286;-89
2023/06/22 08:35:59;;;;;;;6.67;6.13;;;30.90;94.90;;;;;;10460461;28;20284;-88
2023/06/22 08:41:03;;;;;;;5.13;4.63;;;30.50;95.40;;;;;;10439959;28;20213;-88
2023/06/22 08:46:05;;;;;;;5.47;4.97;;;30.60;95.10;;;;;;10456062;28;20470;-87
2023/06/22 08:51:07;;;;;;;5.50;4.90;;;30.80;95.00;;;;;;10455822;28;20198;-89
2023/06/22 08:56:11;;;;;;;6.07;5.30;;;30.90;94.60;;;;;;10437559;28;20218;-89
2023/06/22 09:01:15;;;;;;;8.97;6.03;;;30.70;93.70;;;;;;10468585;28;20214;-87
2023/06/22 09:06:17;;;;;;;5.97;5.37;;;31.00;92.30;;;;;;10456904;28;20242;-87
2023/06/22 09:11:20;;;;;;;9.07;5.77;;;31.30;92.70;;;;;;10439543;28;20182;-87
2023/06/22 09:16:23;;;;;;;5.57;5.00;;;31.30;92.50;;;;;;10463866;28;20304;-87
2023/06/22 09:21:25;;;;;;;6.90;5.93;;;31.10;92.70;;;;;;10462617;28;20198;-87
2023/06/22 09:26:28;;;;;;;7.63;5.37;;;31.60;93.30;;;;;;10479204;28;20288;-88
2023/06/22 09:31:30;;;;;;;6.83;6.13;;;32.60;91.60;;;;;;10453269;28;20197;-88
2023/06/22 09:36:33;;;;;;;8.33;6.37;;;33.50;89.80;;;;;;10475227;28;20217;-90
2023/06/22 09:41:36;;;;;;;8.67;5.63;;;34.40;87.50;;;;;;10472732;28;20574;-90
2023/06/22 09:46:41;;;;;;;8.98;5.75;;;35.30;83.00;;;;;;10492239;28;20217;-88
2023/06/22 09:51:50;;;;;;;6.00;5.47;;;36.00;77.10;;;;;;10457417;28;20213;-89
2023/06/22 09:56:54;;;;;;;7.80;6.97;;;36.40;76.70;;;;;;10453243;28;20600;-89
2023/06/22 10:01:56;;;;;;;9.32;5.85;;;36.60;76.00;;;;;;10443197;28;20201;-90
2023/06/22 10:06:58;;;;;;;6.05;5.45;;;36.70;73.90;;;;;;10453678;28;20695;-89
2023/06/22 10:12:01;;;;;;;6.33;5.73;;;36.40;72.70;;;;;;10455366;28;20251;-90
2023/06/22 10:17:07;;;;;;;7.50;5.87;;;35.60;73.90;;;;;;10460324;28;20248;-93
2023/06/22 10:22:09;;;;;;;6.23;4.60;;;34.80;74.90;;;;;;10449840;28;20558;-88
2023/06/22 10:27:13;;;;;;;5.63;5.13;;;34.00;78.30;;;;;;10452486;28;20207;-89
2023/06/22 10:32:15;;;;;;;5.90;5.30;;;33.60;77.80;;;;;;10435177;28;20579;-88
2023/06/22 10:37:17;;;;;;;10.07;7.33;;;33.40;77.50;;;;;;10452430;28;20218;-89
2023/06/22 10:42:21;;;;;;;6.53;5.30;;;33.20;80.00;;;;;;10451585;28;20247;-89
2023/06/22 10:47:23;;;;;;;6.07;5.10;;;33.20;77.80;;;;;;10455039;28;20626;-88
2023/06/22 10:52:25;;;;;;;6.93;6.23;;;32.90;77.20;;;;;;10452035;28;20236;-88
2023/06/22 10:57:28;;;;;;;6.93;5.80;;;32.70;76.90;;;;;;10452274;28;20260;-88
2023/06/22 11:02:30;;;;;;;6.57;6.07;;;32.40;80.40;;;;;;10473765;28;20205;-89
2023/06/22 11:07:33;;;;;;;6.50;5.90;;;32.00;82.70;;;;;;10430408;28;20579;-87
2023/06/22 11:12:36;;;;;;;6.87;6.27;;;31.90;84.20;;;;;;10451371;28;20283;-89
2023/06/22 11:17:39;;;;;;;8.57;5.90;;;31.70;83.80;;;;;;10432955;28;20222;-88
2023/06/22 11:22:41;;;;;;;10.50;6.53;;;31.60;84.00;;;;;;10450035;28;20564;-88
2023/06/22 11:27:45;;;;;;;7.10;6.40;;;31.40;84.90;;;;;;10449602;28;20217;-87
2023/06/22 11:32:47;;;;;;;8.60;7.30;;;31.20;85.20;;;;;;10432010;28;20210;-88
2023/06/22 11:37:49;;;;;;;7.53;6.00;;;31.10;87.70;;;;;;10431478;28;20679;-89
2023/06/22 11:42:53;;;;;;;9.27;6.70;;;31.10;87.30;;;;;;10415822;28;20297;-88
2023/06/22 11:47:55;;;;;;;8.43;6.63;;;31.20;86.60;;;;;;10434765;28;20214;-89
2023/06/22 11:52:57;;;;;;;11.33;7.10;;;31.30;89.30;;;;;;10451989;28;20237;-88
2023/06/22 11:58:03;;;;;;;7.70;6.87;;;31.30;85.60;;;;;;10439827;28;20222;-87
2023/06/22 12:03:05;;;;;;;6.40;5.80;;;31.40;86.20;;;;;;10457152;28;20285;-89
2023/06/22 12:08:07;;;;;;;8.67;6.53;;;31.40;87.60;;;;;;10456706;28;20723;-88
2023/06/22 12:13:11;;;;;;;7.30;6.17;;;31.40;85.20;;;;;;10457434;28;20369;-86
2023/06/22 12:18:14;;;;;;;8.23;7.00;;;31.30;85.80;;;;;;10440710;28;20225;-88
2023/06/22 12:23:16;;;;;;;7.20;6.50;;;31.20;86.70;;;;;;10439131;28;20213;-87
2023/06/22 12:28:19;;;;;;;6.67;6.10;;;31.10;84.70;;;;;;10456877;28;20222;-86
2023/06/22 12:33:22;;;;;;;11.00;7.17;;;30.90;86.50;;;;;;10461799;28;20251;-89
2023/06/22 12:38:25;;;;;;;7.97;6.50;;;30.90;89.10;;;;;;10440994;28;20275;-88
2023/06/22 12:43:28;;;;;;;9.50;6.80;;;30.80;90.00;;;;;;10438449;28;20712;-86
2023/06/22 12:48:30;;;;;;;10.20;6.87;;;30.50;89.80;;;;;;10453670;28;20220;-88
2023/06/22 12:53:33;;;;;;;6.93;6.23;;;30.30;89.30;;;;;;10453016;28;20190;-89
2023/06/22 12:58:36;;;;;;;8.23;6.33;;;30.30;87.50;;;;;;10455973;28;20304;-89
2023/06/22 13:03:38;;;;;;;8.10;6.60;;;30.30;88.30;;;;;;10457151;28;20382;-87
2023/06/22 13:08:40;;;;;;;9.47;7.10;;;30.30;88.70;;;;;;10455287;28;20220;-86
2023/06/22 13:13:45;;;;;;;7.90;7.10;;;30.20;89.90;;;;;;10437828;28;20200;-88
2023/06/22 13:18:47;;;;;;;7.63;6.93;;;30.10;90.50;;;;;;10459833;28;20222;-88
2023/06/22 13:23:49;;;;;;;7.90;7.10;;;30.10;91.10;;;;;;10447020;28;20209;-89
2023/06/22 13:28:54;;;;;;;9.67;7.10;;;30.10;92.00;;;;;;10455104;28;20336;-88
2023/06/22 13:33:56;;;;;;;11.60;7.03;;;30.20;92.20;;;;;;10454075;28;20237;-86
2023/06/22 13:38:58;;;;;;;7.93;7.13;;;30.20;92.10;;;;;;10454609;28;20218;-87
2023/06/22 13:44:01;;;;;;;7.00;6.30;;;30.20;90.20;;;;;;10454653;28;20224;-88
2023/06/22 13:49:03;;;;;;;8.83;6.80;;;30.20;91.00;;;;;;10437575;28;20248;-86
2023/06/22 13:54:05;;;;;;;10.17;7.87;;;30.20;90.20;;;;;;10436967;28;20233;-87
2023/06/22 13:59:10;;;;;;;8.33;7.53;;;30.30;91.40;;;;;;10435681;28;20232;-87
2023/06/22 14:04:12;;;;;;;7.57;6.87;;;30.20;91.80;;;;;;10450119;28;20209;-88
2023/06/22 14:09:14;;;;;;;8.63;6.27;;;30.20;92.20;;;;;;10433981;28;20209;-88
2023/06/22 14:14:18;;;;;;;7.77;6.00;;;30.20;92.00;;;;;;10418054;28;20198;-88
2023/06/22 14:19:20;;;;;;;10.23;5.70;;;30.20;91.40;;;;;;10454770;28;20237;-86
2023/06/22 14:24:22;;;;;;;13.27;6.23;;;30.30;87.60;;;;;;10452674;28;20194;-86
2023/06/22 14:29:27;;;;;;;11.57;6.70;;;30.40;85.00;;;;;;10433973;28;20592;-88
2023/06/22 14:34:29;;;;;;;6.00;5.50;;;30.40;82.80;;;;;;10452473;28;20218;-88
2023/06/22 14:39:31;;;;;;;8.07;4.90;;;30.40;82.80;;;;;;10451270;28;20700;-86
2023/06/22 14:44:35;;;;;;;10.20;6.00;;;30.50;83.20;;;;;;10433025;28;20217;-87
2023/06/22 14:49:37;;;;;;;7.10;4.17;;;30.60;77.40;;;;;;10417687;28;20766;-87
2023/06/22 14:54:41;;;;;;;4.83;4.23;;;30.60;76.20;;;;;;10442688;28;20198;-89
2023/06/22 15:00:15;;;;;;;6.70;4.27;;;30.50;75.50;;;;;;10458098;28;20277;-87
2023/06/22 15:05:17;;;;;;;5.73;3.67;;;30.30;70.40;;;;;;10489767;28;20202;-88
2023/06/22 15:10:21;;;;;;;9.07;4.13;;;30.30;66.70;;;;;;10449744;28;20201;-86
2023/06/22 15:15:25;;;;;;;4.27;3.20;;;30.20;69.50;;;;;;10458744;28;20205;-85
2023/06/22 15:20:27;;;;;;;5.80;3.40;;;30.20;68.40;;;;;;10428169;28;20210;-86
2023/06/22 15:25:29;;;;;;;5.43;3.20;;;30.20;65.50;;;;;;10448494;28;20218;-85
2023/06/22 15:30:32;;;;;;;10.77;5.00;;;30.20;66.00;;;;;;10478442;28;20678;-87
2023/06/22 15:35:34;;;;;;;4.30;3.23;;;30.20;65.00;;;;;;10449488;28;20221;-87
2023/06/22 15:40:36;;;;;;;5.80;3.43;;;30.20;65.70;;;;;;10427167;28;20217;-85
2023/06/22 15:45:40;;;;;;;5.60;3.50;;;30.10;73.80;;;;;;10451620;28;20565;-88
2023/06/22 15:50:42;;;;;;;9.00;3.70;;;30.00;69.20;;;;;;10427362;28;20202;-85
2023/06/22 15:55:46;;;;;;;6.73;4.30;;;30.10;71.70;;;;;;10451861;28;20216;-88
2023/06/22 16:00:51;;;;;;;9.70;4.30;;;30.10;68.30;;;;;;10449318;28;20263;-89
2023/06/22 16:05:53;;;;;;;4.23;3.50;;;30.10;67.60;;;;;;10449542;28;20214;-87
2023/06/22 16:10:55;;;;;;;8.33;4.23;;;30.10;67.00;;;;;;10443862;28;20191;-88
2023/06/22 16:15:59;;;;;;;11.50;4.40;;;30.10;67.60;;;;;;10421121;28;20224;-89
2023/06/22 16:21:01;;;;;;;5.70;3.50;;;30.00;67.40;;;;;;10448514;28;20224;-89
2023/06/22 16:26:03;;;;;;;6.27;4.33;;;30.00;69.50;;;;;;10433018;28;20237;-89
2023/06/22 16:31:06;;;;;;;8.13;3.80;;;29.90;67.30;;;;;;10430886;28;20202;-88
2023/06/22 16:36:09;;;;;;;6.63;3.80;;;29.90;68.90;;;;;;10445221;28;20674;-88
2023/06/22 16:41:11;;;;;;;5.90;3.90;;;29.80;68.80;;;;;;10433729;28;20225;-88
2023/06/22 16:46:15;;;;;;;9.83;4.33;;;29.70;71.00;;;;;;10444598;28;20264;-88
2023/06/22 16:51:17;;;;;;;6.23;3.93;;;29.50;71.60;;;;;;10449575;28;20674;-88
2023/06/22 16:56:19;;;;;;;7.33;3.97;;;29.40;72.50;;;;;;10454301;28;20232;-88
2023/06/22 17:01:24;;;;;;;4.47;3.40;;;29.30;70.10;;;;;;10454353;28;20227;-87
2023/06/22 17:06:26;;;;;;;3.67;3.33;;;29.20;67.40;;;;;;10436965;28;20233;-88
2023/06/22 17:11:29;;;;;;;8.90;4.30;;;29.10;69.30;;;;;;10436860;28;20748;-87
2023/06/22 17:16:34;;;;;;;10.73;3.80;;;29.00;70.80;;;;;;10454587;28;20213;-87
2023/06/22 17:21:37;;;;;;;9.70;5.00;;;28.90;70.50;;;;;;10436017;28;20229;-87
2023/06/22 17:26:39;;;;;;;10.53;3.60;;;28.90;71.40;;;;;;10448137;28;20225;-88
2023/06/22 17:31:44;;;;;;;11.00;4.20;;;28.70;71.40;;;;;;10453386;28;20202;-88
2023/06/22 17:36:48;;;;;;;4.97;3.57;;;28.60;71.00;;;;;;10445610;28;20267;-89
2023/06/22 17:41:51;;;;;;;8.57;4.23;;;28.60;67.30;;;;;;10453500;28;20280;-87
2023/06/22 17:46:56;;;;;;;8.70;4.10;;;28.50;67.40;;;;;;10435706;28;20218;-88
2023/06/22 17:51:58;;;;;;;6.07;3.30;;;28.40;67.50;;;;;;10434832;28;20198;-86
2023/06/22 17:57:00;;;;;;;5.63;3.70;;;28.30;69.30;;;;;;10453595;28;20324;-84
2023/06/22 18:02:09;;;;;;;5.97;3.40;;;28.30;69.80;;;;;;10436058;28;20260;-84
2023/06/22 18:07:12;;;;;;;6.70;3.33;;;28.20;69.50;;;;;;10484037;28;20297;-84
2023/06/22 18:12:14;;;;;;;9.80;3.77;;;28.00;70.10;;;;;;10431725;28;20744;-85
2023/06/22 18:17:21;;;;;;;7.90;3.00;;;27.90;70.30;;;;;;10446833;28;20637;-85
2023/06/22 18:22:23;;;;;;;5.20;3.10;;;27.90;69.60;;;;;;10448600;28;20260;-85
2023/06/22 18:27:27;;;;;;;4.13;2.73;;;27.80;69.60;;;;;;10443984;28;20226;-85
2023/06/22 18:32:31;;;;;;;4.40;3.13;;;27.70;70.10;;;;;;10422414;28;20206;-86
2023/06/22 18:37:34;;;;;;;5.90;4.23;;;27.50;71.30;;;;;;10443075;28;20567;-86
2023/06/22 18:42:43;;;;;;;9.10;2.70;;;27.40;72.20;;;;;;10430554;28;20727;-86
2023/06/22 18:47:56;;;;;;;7.60;2.43;;;27.30;74.30;;;;;;10454455;28;20280;-85
2023/06/22 18:53:05;;;;;;;5.90;3.73;;;27.20;73.50;;;;;;10454050;28;20190;-85
2023/06/22 18:58:15;;;;;;;4.93;3.17;;;27.10;75.20;;;;;;10428069;28;20222;-85
2023/06/22 19:03:34;;;;;;;6.83;3.23;;;27.00;74.70;;;;;;10444243;28;20747;-86
2023/06/22 19:09:13;;;;;;;4.67;3.63;;;26.80;75.50;;;;;;10418212;28;20214;-86
2023/06/22 19:14:19;;;;;;;3.13;2.77;;;26.60;77.40;;;;;;10451430;28;20202;-86
2023/06/22 19:19:25;;;;;;;4.53;3.70;;;26.50;77.00;;;;;;10447140;28;20229;-86
2023/06/22 19:24:31;;;;;;;4.13;2.60;;;26.50;77.70;;;;;;10425685;28;20263;-85
2023/06/22 19:29:33;;;;;;;4.50;3.27;;;26.40;78.10;;;;;;10440833;28;20572;-84
2023/06/22 19:34:44;;;;;;;6.00;3.83;;;26.30;77.70;;;;;;10445223;28;20205;-85
2023/06/22 19:39:46;;;;;;;7.10;3.40;;;26.20;78.60;;;;;;10423397;28;20213;-85
2023/06/22 19:44:49;;;;;;;7.27;2.97;;;26.20;78.70;;;;;;10427618;28;20305;-85
2023/06/22 19:50:01;;;;;;;3.80;2.77;;;26.00;79.70;;;;;;10428501;28;20585;-85
2023/06/22 19:55:05;;;;;;;3.77;2.97;;;25.90;81.40;;;;;;10444654;28;20194;-86
2023/06/22 20:00:12;;;;;;;7.50;3.47;;;25.80;82.40;;;;;;10426041;28;20224;-85
2023/06/22 20:05:16;;;;;;;4.60;3.00;;;25.70;82.90;;;;;;10444921;28;20845;-85
2023/06/22 20:10:19;;;;;;;5.90;3.43;;;25.60;83.40;;;;;;10410698;28;20691;-85
2023/06/22 20:15:23;;;;;;;8.30;3.63;;;25.50;84.50;;;;;;10441599;28;20322;-85
2023/06/22 20:20:28;;;;;;;9.70;3.80;;;25.40;85.10;;;;;;10435891;28;20221;-85
2023/06/22 20:25:31;;;;;;;7.10;3.93;;;25.40;85.80;;;;;;10428601;28;20222;-84
2023/06/22 20:30:34;;;;;;;11.13;8.47;;;25.40;86.60;;;;;;10436326;28;20201;-85
2023/06/22 20:35:38;;;;;;;9.73;4.17;;;25.30;86.70;;;;;;10454052;28;20236;-85
2023/06/22 20:40:40;;;;;;;4.63;3.90;;;25.30;87.20;;;;;;10437679;28;20217;-86
2023/06/22 20:45:42;;;;;;;4.60;3.63;;;25.20;88.00;;;;;;10469716;28;20210;-85
2023/06/22 20:50:46;;;;;;;4.80;3.90;;;25.20;88.60;;;;;;10460876;28;20182;-85
2023/06/22 20:55:48;;;;;;;9.10;4.70;;;25.20;89.50;;;;;;10466777;28;20300;-85
2023/06/22 21:00:50;;;;;;;8.70;4.40;;;25.20;89.80;;;;;;10443395;28;20252;-86
2023/06/22 21:05:54;;;;;;;6.60;4.03;;;25.20;90.50;;;;;;10438081;28;20213;-86
2023/06/22 21:10:56;;;;;;;3.87;3.47;;;25.20;90.50;;;;;;10420581;28;20608;-85
2023/06/22 21:15:59;;;;;;;5.07;3.53;;;25.20;90.30;;;;;;10482201;28;20226;-85
2023/06/22 21:21:02;;;;;;;4.00;3.30;;;25.10;90.80;;;;;;10459881;28;20214;-85
2023/06/22 21:26:04;;;;;;;3.37;3.10;;;25.10;91.10;;;;;;10454216;28;20221;-86
2023/06/22 21:31:06;;;;;;;3.13;2.30;;;25.20;91.20;;;;;;10419963;28;20205;-85
2023/06/22 21:36:10;;;;;;;3.10;1.77;;;25.10;90.90;;;;;;10441880;28;20267;-85
2023/06/22 21:41:12;;;;;;;3.03;1.60;;;25.00;90.80;;;;;;10435317;28;20228;-86
2023/06/22 21:46:14;;;;;;;1.47;1.37;;;25.00;90.20;;;;;;10457202;28;20287;-85
2023/06/22 21:51:18;;;;;;;2.33;1.80;;;24.80;89.50;;;;;;10433240;28;20225;-85
2023/06/22 21:56:20;;;;;;;1.80;1.70;;;24.80;90.20;;;;;;10436549;28;20225;-84
2023/06/22 22:01:22;;;;;;;1.93;1.70;;;24.70;90.30;;;;;;10438925;28;20818;-85
2023/06/22 22:06:26;;;;;;;1.53;1.40;;;24.60;90.10;;;;;;10451857;28;20229;-85
2023/06/22 22:11:28;;;;;;;1.90;1.60;;;24.60;90.40;;;;;;10455438;28;20281;-84
2023/06/22 22:16:30;;;;;;;1.30;1.30;;;24.50;89.30;;;;;;10435084;28;20308;-84
2023/06/22 22:21:34;;;;;;;1.90;1.80;;;24.50;89.60;;;;;;10498664;22;20230;-78
2023/06/22 22:26:36;;;;;;;1.73;1.63;;;24.50;89.80;;;;;;10415395;28;20607;-79
2023/06/22 22:31:38;;;;;;;1.77;1.63;;;24.40;88.80;;;;;;10410659;28;20592;-79
2023/06/22 22:36:41;;;;;;;2.87;2.67;;;24.40;88.90;;;;;;10378957;28;20254;-79
2023/06/22 22:41:43;;;;;;;2.00;1.90;;;24.30;88.60;;;;;;10377116;28;20225;-79
2023/06/22 22:46:46;;;;;;;1.93;1.83;;;24.30;89.90;;;;;;10376656;28;20754;-79
2023/06/22 22:51:50;;;;;;;1.80;1.70;;;24.20;90.50;;;;;;10341037;28;20207;-82
2023/06/22 22:56:52;;;;;;;3.90;2.40;;;24.20;90.20;;;;;;10373293;28;20199;-80
2023/06/22 23:01:54;;;;;;;1.87;1.77;;;24.20;89.90;;;;;;10356734;28;20233;-79
2023/06/22 23:06:57;;;;;;;2.00;1.90;;;24.10;90.10;;;;;;10352072;28;20257;-79
2023/06/22 23:11:59;;;;;;;1.83;1.73;;;24.10;90.50;;;;;;10373605;28;20629;-80
2023/06/22 23:17:03;;;;;;;4.60;4.20;;;24.10;90.50;;;;;;10359368;28;20207;-78
2023/06/22 23:22:07;;;;;;;2.50;2.30;;;24.10;91.00;;;;;;10375598;28;20715;-79
2023/06/22 23:27:12;;;;;;;2.10;2.00;;;24.00;91.00;;;;;;10377032;28;20203;-79
2023/06/22 23:32:14;;;;;;;2.23;1.90;;;24.00;91.20;;;;;;10393496;28;20215;-78
2023/06/22 23:37:18;;;;;;;2.20;2.10;;;24.00;91.30;;;;;;10389797;28;20221;-78
2023/06/22 23:42:21;;;;;;;2.20;2.10;;;24.00;91.50;;;;;;10383847;28;20714;-79
2023/06/22 23:47:23;;;;;;;2.40;2.20;;;24.00;91.30;;;;;;10360426;28;20651;-78
2023/06/22 23:52:26;;;;;;;2.03;1.93;;;24.00;91.30;;;;;;10388853;28;20234;-80
2023/06/22 23:57:29;;;;;;;2.67;2.43;;;24.00;91.60;;;;;;10390271;28;20203;-80
